Custer Park, Illinois
Current Conditions -  °F | °C
As of 6:35 AM on Saturday 25 Oct 2014 (Local Time) from KJOT Reporting Station
Haze Haze  
Wind Chill: 55°   Ceiling: 900
Heat Index: 55°   Visibility: 2.5mi
Dew Point: 54°   Wind: 0mph
Humidity: 96%   Direction: NA
Pressure: 29.93"   Gusts: NA
Location:  41.3199°N, 88.0518°W
Report Text: KJOT 251135Z AUTO 00000KT 2 1/2SM BR OVC009 13/12 A2993 RMK AO2 T01300123
Loading
Personal Weather Stations






























Interactive Weather Map New forecast layout! Learn more

10-Day Weather Forecast

Advertisements
Track Severe Weather on mobile